createdAt,value
2022-08-01T10:27:59.634Z,1.50
2022-08-01T10:33:52.361Z,1.47
2022-08-01T10:45:13.591Z,1.30
2022-08-01T10:51:17.759Z,1.50
2022-08-01T10:56:42.424Z,1.30
2022-08-01T11:09:36.687Z,1.50
2022-08-01T11:15:29.934Z,1.10
2022-08-01T11:21:58.744Z,1.10
2022-08-01T11:26:29.611Z,1.35
2022-08-01T11:31:41.017Z,1.00
2022-08-01T11:36:59.490Z,1.30
2022-08-01T11:42:31.522Z,1.27
2022-08-01T11:48:31.506Z,1.30
2022-08-01T11:54:14.560Z,1.40
2022-08-01T12:06:26.366Z,1.10
2022-08-01T12:12:26.325Z,0.80
2022-08-01T12:17:45.871Z,1.00
2022-08-01T12:23:06.678Z,1.00
2022-08-01T12:28:14.842Z,1.20
2022-08-01T12:33:21.822Z,1.10
2022-08-01T12:38:28.112Z,1.20
2022-08-01T12:43:35.459Z,1.00
2022-08-01T12:48:40.377Z,1.17
2022-08-01T12:53:45.439Z,1.13
2022-08-01T12:58:51.360Z,1.30
2022-08-01T13:04:05.035Z,1.08
2022-08-01T13:09:11.490Z,1.60
2022-08-01T13:14:31.222Z,1.20
2022-08-01T13:19:45.667Z,1.30
2022-08-01T13:24:51.078Z,1.20
2022-08-01T13:30:12.790Z,1.40
2022-08-01T13:35:23.317Z,1.40
2022-08-01T13:40:29.776Z,1.30
2022-08-01T13:45:37.094Z,1.10
2022-08-01T13:50:41.613Z,1.13
2022-08-01T13:55:45.934Z,1.23
2022-08-01T14:00:53.171Z,1.20
2022-08-01T14:05:58.992Z,1.20
2022-08-01T14:11:03.343Z,1.40
2022-08-01T14:16:13.733Z,1.50
2022-08-01T14:21:22.744Z,1.90
2022-08-01T14:26:27.012Z,1.50
2022-08-01T14:31:34.511Z,1.80
2022-08-01T14:36:39.085Z,1.70
2022-08-01T14:41:44.068Z,1.98
2022-08-01T14:46:57.604Z,2.00
2022-08-01T14:52:02.507Z,2.30
2022-08-01T14:57:06.996Z,2.10
2022-08-01T15:02:13.661Z,2.27
2022-08-01T15:07:19.550Z,2.00
2022-08-01T15:12:24.943Z,1.90
2022-08-01T15:17:40.149Z,2.10
2022-08-01T15:22:44.320Z,2.30
2022-08-01T15:27:50.593Z,2.13
2022-08-01T15:32:59.339Z,2.37
2022-08-01T15:38:04.363Z,2.00
2022-08-01T15:43:10.169Z,1.90
2022-08-01T15:48:24.148Z,2.03
2022-08-01T15:53:29.571Z,1.98
2022-08-01T15:58:35.775Z,2.00
2022-08-01T16:03:41.478Z,2.33
2022-08-01T16:08:45.913Z,1.75
2022-08-01T16:13:54.748Z,1.98
2022-08-01T16:19:00.440Z,2.00
2022-08-01T16:24:05.301Z,1.80
2022-08-01T16:29:09.850Z,1.92
2022-08-01T16:34:15.649Z,1.75
2022-08-01T16:39:23.538Z,1.80
2022-08-01T16:44:33.686Z,1.92
2022-08-01T16:49:40.256Z,2.28
2022-08-01T16:54:44.700Z,2.07
2022-08-01T16:59:48.960Z,2.60
2022-08-01T17:04:54.575Z,2.13
2022-08-01T17:10:00.936Z,2.50
2022-08-01T17:15:07.949Z,1.90
2022-08-01T17:20:14.198Z,2.08
2022-08-01T17:25:18.631Z,2.07
2022-08-01T17:30:23.223Z,2.20
2022-08-01T17:35:29.063Z,2.00
2022-08-01T17:40:41.436Z,2.00
2022-08-01T17:45:50.826Z,1.90
2022-08-01T17:50:57.131Z,2.17
2022-08-01T17:56:02.921Z,2.30
2022-08-01T18:01:07.687Z,2.40
2022-08-01T18:06:17.097Z,2.10
2022-08-01T18:11:21.616Z,2.80
2022-08-01T18:16:26.144Z,3.33
2022-08-01T18:21:33.696Z,3.47
2022-08-01T18:26:37.997Z,3.20
2022-08-01T18:31:42.413Z,2.97
2022-08-01T18:36:49.189Z,2.65
2022-08-01T18:41:53.784Z,1.95
2022-08-01T18:46:58.221Z,2.10
2022-08-01T18:52:05.013Z,2.15
2022-08-01T18:57:10.008Z,1.90
2022-08-01T19:02:14.788Z,5.28
2022-08-01T19:07:39.357Z,1.80
2022-08-01T19:12:46.462Z,2.00
2022-08-01T19:17:50.757Z,2.13
2022-08-01T19:22:57.627Z,2.00
2022-08-01T19:28:02.176Z,2.13
2022-08-01T19:33:07.888Z,2.35
2022-08-01T19:38:15.166Z,2.63
2022-08-01T19:43:22.570Z,3.03
2022-08-01T19:48:27.031Z,3.20
2022-08-01T19:53:39.015Z,3.23
2022-08-01T19:58:45.261Z,3.60
2022-08-01T20:03:52.127Z,2.53
2022-08-01T20:09:02.071Z,2.55
2022-08-01T20:14:06.514Z,2.72
2022-08-01T20:19:11.310Z,2.70
2022-08-01T20:24:19.343Z,4.60
2022-08-01T20:29:29.846Z,4.93
2022-08-01T20:37:13.005Z,3.80
2022-08-01T20:42:18.457Z,3.15
2022-08-01T20:47:23.393Z,2.97
2022-08-01T20:52:29.199Z,2.67
2022-08-01T20:57:34.026Z,3.40
2022-08-01T21:02:58.273Z,3.17
2022-08-01T21:08:08.987Z,4.15
2022-08-01T21:13:21.178Z,2.47
2022-08-01T21:18:38.819Z,1.80
